sensor_id;sensor_type;location;lat;lon;timestamp;P1;durP1;ratioP1;P2;durP2;ratioP2
1699;SDS011;847;48.058;7.810;2023-02-28T00:01:13;3.30;;;3.00;;
1699;SDS011;847;48.058;7.810;2023-02-28T00:03:43;5.70;;;3.57;;
1699;SDS011;847;48.058;7.810;2023-02-28T00:06:09;5.70;;;3.10;;
1699;SDS011;847;48.058;7.810;2023-02-28T00:08:36;3.40;;;3.10;;
1699;SDS011;847;48.058;7.810;2023-02-28T00:11:04;3.57;;;3.10;;
1699;SDS011;847;48.058;7.810;2023-02-28T00:13:33;4.47;;;3.50;;
1699;SDS011;847;48.058;7.810;2023-02-28T00:16:01;4.60;;;3.57;;
1699;SDS011;847;48.058;7.810;2023-02-28T00:18:29;3.73;;;2.80;;
1699;SDS011;847;48.058;7.810;2023-02-28T00:20:58;4.33;;;3.30;;
1699;SDS011;847;48.058;7.810;2023-02-28T00:23:26;6.60;;;3.10;;
1699;SDS011;847;48.058;7.810;2023-02-28T00:25:56;3.88;;;3.58;;
1699;SDS011;847;48.058;7.810;2023-02-28T00:28:23;3.50;;;3.00;;
1699;SDS011;847;48.058;7.810;2023-02-28T00:30:50;4.20;;;2.93;;
1699;SDS011;847;48.058;7.810;2023-02-28T00:33:17;3.60;;;3.10;;
1699;SDS011;847;48.058;7.810;2023-02-28T00:35:44;4.57;;;3.00;;
1699;SDS011;847;48.058;7.810;2023-02-28T00:38:13;2.90;;;2.67;;
1699;SDS011;847;48.058;7.810;2023-02-28T00:40:40;5.60;;;3.20;;
1699;SDS011;847;48.058;7.810;2023-02-28T00:43:07;4.30;;;3.13;;
1699;SDS011;847;48.058;7.810;2023-02-28T00:45:34;3.50;;;3.10;;
1699;SDS011;847;48.058;7.810;2023-02-28T00:48:01;3.83;;;3.47;;
1699;SDS011;847;48.058;7.810;2023-02-28T00:50:29;3.40;;;3.10;;
1699;SDS011;847;48.058;7.810;2023-02-28T00:52:56;3.90;;;3.53;;
1699;SDS011;847;48.058;7.810;2023-02-28T00:55:24;6.63;;;3.83;;
1699;SDS011;847;48.058;7.810;2023-02-28T00:57:51;4.30;;;3.63;;
1699;SDS011;847;48.058;7.810;2023-02-28T01:00:18;4.30;;;3.33;;
1699;SDS011;847;48.058;7.810;2023-02-28T01:02:45;3.83;;;3.33;;
1699;SDS011;847;48.058;7.810;2023-02-28T01:05:12;3.40;;;3.10;;
1699;SDS011;847;48.058;7.810;2023-02-28T01:07:39;3.70;;;3.07;;
1699;SDS011;847;48.058;7.810;2023-02-28T01:10:06;3.60;;;3.07;;
1699;SDS011;847;48.058;7.810;2023-02-28T01:12:36;3.73;;;3.43;;
1699;SDS011;847;48.058;7.810;2023-02-28T01:15:03;4.13;;;3.50;;
1699;SDS011;847;48.058;7.810;2023-02-28T01:17:31;3.40;;;3.10;;
1699;SDS011;847;48.058;7.810;2023-02-28T01:19:57;6.77;;;3.40;;
1699;SDS011;847;48.058;7.810;2023-02-28T01:22:24;3.50;;;3.20;;
1699;SDS011;847;48.058;7.810;2023-02-28T01:24:51;5.00;;;3.30;;
1699;SDS011;847;48.058;7.810;2023-02-28T01:27:19;4.40;;;3.10;;
1699;SDS011;847;48.058;7.810;2023-02-28T01:29:47;4.77;;;3.13;;
1699;SDS011;847;48.058;7.810;2023-02-28T01:32:14;3.60;;;3.30;;
1699;SDS011;847;48.058;7.810;2023-02-28T01:34:41;4.73;;;3.53;;
1699;SDS011;847;48.058;7.810;2023-02-28T01:37:08;4.13;;;3.60;;
1699;SDS011;847;48.058;7.810;2023-02-28T01:39:34;3.83;;;3.53;;
1699;SDS011;847;48.058;7.810;2023-02-28T01:42:01;3.73;;;3.33;;
1699;SDS011;847;48.058;7.810;2023-02-28T01:47:24;5.00;;;3.38;;
1699;SDS011;847;48.058;7.810;2023-02-28T01:49:53;3.90;;;3.50;;
1699;SDS011;847;48.058;7.810;2023-02-28T01:52:20;3.50;;;3.20;;
1699;SDS011;847;48.058;7.810;2023-02-28T01:54:50;6.47;;;3.93;;
1699;SDS011;847;48.058;7.810;2023-02-28T01:57:20;5.20;;;3.33;;
1699;SDS011;847;48.058;7.810;2023-02-28T01:59:50;3.33;;;3.03;;
1699;SDS011;847;48.058;7.810;2023-02-28T02:02:21;3.87;;;3.57;;
1699;SDS011;847;48.058;7.810;2023-02-28T02:04:50;3.90;;;3.50;;
1699;SDS011;847;48.058;7.810;2023-02-28T02:07:20;5.00;;;3.50;;
1699;SDS011;847;48.058;7.810;2023-02-28T02:09:48;4.13;;;3.28;;
1699;SDS011;847;48.058;7.810;2023-02-28T02:12:24;3.40;;;3.10;;
1699;SDS011;847;48.058;7.810;2023-02-28T02:15:00;3.70;;;3.40;;
1699;SDS011;847;48.058;7.810;2023-02-28T02:17:35;5.50;;;3.30;;
1699;SDS011;847;48.058;7.810;2023-02-28T02:20:12;3.93;;;3.27;;
1699;SDS011;847;48.058;7.810;2023-02-28T02:23:08;3.57;;;3.27;;
1699;SDS011;847;48.058;7.810;2023-02-28T02:25:53;3.60;;;3.30;;
1699;SDS011;847;48.058;7.810;2023-02-28T02:28:32;4.40;;;3.90;;
1699;SDS011;847;48.058;7.810;2023-02-28T02:31:31;3.00;;;2.80;;
1699;SDS011;847;48.058;7.810;2023-02-28T02:34:35;3.77;;;3.00;;
1699;SDS011;847;48.058;7.810;2023-02-28T02:37:13;3.88;;;3.40;;
1699;SDS011;847;48.058;7.810;2023-02-28T02:39:47;4.07;;;3.67;;
1699;SDS011;847;48.058;7.810;2023-02-28T02:42:19;4.03;;;2.90;;
1699;SDS011;847;48.058;7.810;2023-02-28T02:44:50;4.20;;;3.20;;
1699;SDS011;847;48.058;7.810;2023-02-28T02:47:24;3.50;;;3.17;;
1699;SDS011;847;48.058;7.810;2023-02-28T02:49:57;4.25;;;3.75;;
1699;SDS011;847;48.058;7.810;2023-02-28T02:52:30;4.00;;;3.50;;
1699;SDS011;847;48.058;7.810;2023-02-28T02:55:03;3.70;;;3.40;;
1699;SDS011;847;48.058;7.810;2023-02-28T02:57:41;4.27;;;3.43;;
1699;SDS011;847;48.058;7.810;2023-02-28T03:00:13;3.20;;;2.90;;
1699;SDS011;847;48.058;7.810;2023-02-28T03:02:42;4.73;;;3.67;;
1699;SDS011;847;48.058;7.810;2023-02-28T03:05:14;5.30;;;3.63;;
1699;SDS011;847;48.058;7.810;2023-02-28T03:07:45;3.50;;;3.20;;
1699;SDS011;847;48.058;7.810;2023-02-28T03:10:25;3.50;;;3.20;;
1699;SDS011;847;48.058;7.810;2023-02-28T03:13:00;3.50;;;3.17;;
1699;SDS011;847;48.058;7.810;2023-02-28T03:15:49;3.33;;;2.58;;
1699;SDS011;847;48.058;7.810;2023-02-28T03:18:24;3.90;;;2.90;;
1699;SDS011;847;48.058;7.810;2023-02-28T03:21:06;3.97;;;3.60;;
1699;SDS011;847;48.058;7.810;2023-02-28T03:23:44;3.03;;;2.80;;
1699;SDS011;847;48.058;7.810;2023-02-28T03:26:17;5.20;;;3.50;;
1699;SDS011;847;48.058;7.810;2023-02-28T03:28:50;4.63;;;3.47;;
1699;SDS011;847;48.058;7.810;2023-02-28T03:31:22;3.50;;;3.07;;
1699;SDS011;847;48.058;7.810;2023-02-28T03:33:58;5.23;;;3.37;;
1699;SDS011;847;48.058;7.810;2023-02-28T03:36:31;3.55;;;2.90;;
1699;SDS011;847;48.058;7.810;2023-02-28T03:39:09;4.60;;;3.47;;
1699;SDS011;847;48.058;7.810;2023-02-28T03:41:44;8.13;;;3.70;;
1699;SDS011;847;48.058;7.810;2023-02-28T03:44:16;4.97;;;3.17;;
1699;SDS011;847;48.058;7.810;2023-02-28T03:46:48;3.77;;;3.47;;
1699;SDS011;847;48.058;7.810;2023-02-28T03:49:22;4.77;;;3.87;;
1699;SDS011;847;48.058;7.810;2023-02-28T03:51:54;4.57;;;3.30;;
1699;SDS011;847;48.058;7.810;2023-02-28T03:54:26;3.80;;;3.00;;
1699;SDS011;847;48.058;7.810;2023-02-28T03:56:56;3.60;;;3.17;;
1699;SDS011;847;48.058;7.810;2023-02-28T03:59:30;3.87;;;3.57;;
1699;SDS011;847;48.058;7.810;2023-02-28T04:02:01;5.20;;;3.20;;
1699;SDS011;847;48.058;7.810;2023-02-28T04:04:28;3.43;;;3.13;;
1699;SDS011;847;48.058;7.810;2023-02-28T04:07:02;7.27;;;3.13;;
1699;SDS011;847;48.058;7.810;2023-02-28T04:09:31;5.43;;;4.30;;
1699;SDS011;847;48.058;7.810;2023-02-28T04:12:00;4.33;;;2.93;;
1699;SDS011;847;48.058;7.810;2023-02-28T04:14:27;3.40;;;3.10;;
1699;SDS011;847;48.058;7.810;2023-02-28T04:16:54;6.20;;;3.83;;
1699;SDS011;847;48.058;7.810;2023-02-28T04:19:21;4.57;;;3.45;;
1699;SDS011;847;48.058;7.810;2023-02-28T04:21:48;3.53;;;3.22;;
1699;SDS011;847;48.058;7.810;2023-02-28T04:24:21;6.47;;;3.80;;
1699;SDS011;847;48.058;7.810;2023-02-28T04:26:50;4.68;;;3.70;;
1699;SDS011;847;48.058;7.810;2023-02-28T04:29:23;4.00;;;3.40;;
1699;SDS011;847;48.058;7.810;2023-02-28T04:31:51;3.43;;;3.13;;
1699;SDS011;847;48.058;7.810;2023-02-28T04:34:19;3.08;;;2.78;;
1699;SDS011;847;48.058;7.810;2023-02-28T04:36:48;4.23;;;3.70;;
1699;SDS011;847;48.058;7.810;2023-02-28T04:39:15;4.80;;;4.07;;
1699;SDS011;847;48.058;7.810;2023-02-28T04:41:44;5.53;;;3.70;;
1699;SDS011;847;48.058;7.810;2023-02-28T04:44:14;4.95;;;4.20;;
1699;SDS011;847;48.058;7.810;2023-02-28T04:46:44;5.97;;;4.68;;
1699;SDS011;847;48.058;7.810;2023-02-28T04:49:11;3.53;;;3.22;;
1699;SDS011;847;48.058;7.810;2023-02-28T04:51:39;6.32;;;3.95;;
1699;SDS011;847;48.058;7.810;2023-02-28T04:54:07;3.47;;;3.17;;
1699;SDS011;847;48.058;7.810;2023-02-28T04:56:36;6.53;;;3.70;;
1699;SDS011;847;48.058;7.810;2023-02-28T04:59:03;4.45;;;4.05;;
1699;SDS011;847;48.058;7.810;2023-02-28T05:01:31;5.50;;;4.10;;
1699;SDS011;847;48.058;7.810;2023-02-28T05:04:02;6.25;;;4.38;;
1699;SDS011;847;48.058;7.810;2023-02-28T05:06:31;7.05;;;4.30;;
1699;SDS011;847;48.058;7.810;2023-02-28T05:08:59;5.90;;;4.10;;
1699;SDS011;847;48.058;7.810;2023-02-28T05:11:27;7.70;;;4.50;;
1699;SDS011;847;48.058;7.810;2023-02-28T05:14:01;5.03;;;4.20;;
1699;SDS011;847;48.058;7.810;2023-02-28T05:16:28;4.80;;;4.10;;
1699;SDS011;847;48.058;7.810;2023-02-28T05:18:55;6.13;;;4.20;;
1699;SDS011;847;48.058;7.810;2023-02-28T05:21:23;6.25;;;4.10;;
1699;SDS011;847;48.058;7.810;2023-02-28T05:23:52;5.10;;;3.90;;
1699;SDS011;847;48.058;7.810;2023-02-28T05:26:19;4.03;;;3.70;;
1699;SDS011;847;48.058;7.810;2023-02-28T05:28:47;7.97;;;5.20;;
1699;SDS011;847;48.058;7.810;2023-02-28T05:31:15;4.82;;;4.35;;
1699;SDS011;847;48.058;7.810;2023-02-28T05:33:43;5.53;;;5.07;;
1699;SDS011;847;48.058;7.810;2023-02-28T05:36:10;4.07;;;3.42;;
1699;SDS011;847;48.058;7.810;2023-02-28T05:38:37;5.13;;;4.20;;
1699;SDS011;847;48.058;7.810;2023-02-28T05:41:05;5.20;;;3.85;;
1699;SDS011;847;48.058;7.810;2023-02-28T05:43:33;4.30;;;3.90;;
1699;SDS011;847;48.058;7.810;2023-02-28T05:46:02;4.82;;;4.35;;
1699;SDS011;847;48.058;7.810;2023-02-28T05:48:32;6.25;;;4.35;;
1699;SDS011;847;48.058;7.810;2023-02-28T05:50:59;4.43;;;4.00;;
1699;SDS011;847;48.058;7.810;2023-02-28T05:53:27;6.50;;;4.50;;
1699;SDS011;847;48.058;7.810;2023-02-28T05:55:55;4.93;;;4.33;;
1699;SDS011;847;48.058;7.810;2023-02-28T05:58:22;5.47;;;3.85;;
1699;SDS011;847;48.058;7.810;2023-02-28T06:00:54;4.65;;;4.15;;
1699;SDS011;847;48.058;7.810;2023-02-28T06:03:21;8.47;;;3.90;;
1699;SDS011;847;48.058;7.810;2023-02-28T06:05:50;5.60;;;4.33;;
1699;SDS011;847;48.058;7.810;2023-02-28T06:08:17;6.55;;;4.68;;
1699;SDS011;847;48.058;7.810;2023-02-28T06:10:44;6.70;;;4.30;;
1699;SDS011;847;48.058;7.810;2023-02-28T06:13:11;6.73;;;4.70;;
1699;SDS011;847;48.058;7.810;2023-02-28T06:15:39;6.78;;;4.70;;
1699;SDS011;847;48.058;7.810;2023-02-28T06:18:06;5.00;;;4.60;;
1699;SDS011;847;48.058;7.810;2023-02-28T06:20:33;6.43;;;4.65;;
1699;SDS011;847;48.058;7.810;2023-02-28T06:23:03;5.80;;;4.65;;
1699;SDS011;847;48.058;7.810;2023-02-28T06:25:30;5.47;;;3.72;;
1699;SDS011;847;48.058;7.810;2023-02-28T06:27:57;7.18;;;5.05;;
1699;SDS011;847;48.058;7.810;2023-02-28T06:30:24;5.20;;;4.80;;
1699;SDS011;847;48.058;7.810;2023-02-28T06:32:53;5.85;;;5.30;;
1699;SDS011;847;48.058;7.810;2023-02-28T06:35:20;4.88;;;4.47;;
1699;SDS011;847;48.058;7.810;2023-02-28T06:37:47;5.82;;;5.32;;
1699;SDS011;847;48.058;7.810;2023-02-28T06:40:16;5.85;;;4.80;;
1699;SDS011;847;48.058;7.810;2023-02-28T06:42:43;4.82;;;4.30;;
1699;SDS011;847;48.058;7.810;2023-02-28T06:45:10;5.60;;;5.10;;
1699;SDS011;847;48.058;7.810;2023-02-28T06:47:38;5.43;;;4.88;;
1699;SDS011;847;48.058;7.810;2023-02-28T06:50:06;6.78;;;4.90;;
1699;SDS011;847;48.058;7.810;2023-02-28T06:52:35;6.22;;;5.10;;
1699;SDS011;847;48.058;7.810;2023-02-28T06:55:03;7.38;;;5.03;;
1699;SDS011;847;48.058;7.810;2023-02-28T06:57:32;7.47;;;5.97;;
1699;SDS011;847;48.058;7.810;2023-02-28T07:00:01;5.70;;;5.10;;
1699;SDS011;847;48.058;7.810;2023-02-28T07:02:31;6.40;;;4.88;;
1699;SDS011;847;48.058;7.810;2023-02-28T07:04:57;6.47;;;4.75;;
1699;SDS011;847;48.058;7.810;2023-02-28T07:07:24;8.70;;;5.28;;
1699;SDS011;847;48.058;7.810;2023-02-28T07:09:51;6.57;;;4.40;;
1699;SDS011;847;48.058;7.810;2023-02-28T07:12:18;4.68;;;4.20;;
1699;SDS011;847;48.058;7.810;2023-02-28T07:14:47;5.57;;;5.07;;
1699;SDS011;847;48.058;7.810;2023-02-28T07:17:14;6.40;;;5.15;;
1699;SDS011;847;48.058;7.810;2023-02-28T07:19:41;6.32;;;5.78;;
1699;SDS011;847;48.058;7.810;2023-02-28T07:22:08;5.78;;;5.18;;
1699;SDS011;847;48.058;7.810;2023-02-28T07:24:34;6.20;;;5.47;;
1699;SDS011;847;48.058;7.810;2023-02-28T07:27:01;5.78;;;5.18;;
1699;SDS011;847;48.058;7.810;2023-02-28T07:29:28;6.38;;;5.70;;
1699;SDS011;847;48.058;7.810;2023-02-28T07:31:57;7.35;;;6.00;;
1699;SDS011;847;48.058;7.810;2023-02-28T07:34:24;6.68;;;5.18;;
1699;SDS011;847;48.058;7.810;2023-02-28T07:36:52;6.68;;;5.53;;
1699;SDS011;847;48.058;7.810;2023-02-28T07:39:20;7.60;;;5.75;;
1699;SDS011;847;48.058;7.810;2023-02-28T07:41:47;7.80;;;5.10;;
1699;SDS011;847;48.058;7.810;2023-02-28T07:44:14;6.00;;;5.13;;
1699;SDS011;847;48.058;7.810;2023-02-28T07:46:41;5.88;;;5.05;;
1699;SDS011;847;48.058;7.810;2023-02-28T07:49:10;7.15;;;5.70;;
1699;SDS011;847;48.058;7.810;2023-02-28T07:51:36;7.07;;;6.38;;
1699;SDS011;847;48.058;7.810;2023-02-28T07:54:04;7.93;;;5.35;;
1699;SDS011;847;48.058;7.810;2023-02-28T07:56:31;7.47;;;6.05;;
1699;SDS011;847;48.058;7.810;2023-02-28T07:58:58;5.40;;;4.90;;
1699;SDS011;847;48.058;7.810;2023-02-28T08:01:26;6.53;;;5.15;;
1699;SDS011;847;48.058;7.810;2023-02-28T08:03:53;5.55;;;4.82;;
1699;SDS011;847;48.058;7.810;2023-02-28T08:06:24;7.20;;;5.28;;
1699;SDS011;847;48.058;7.810;2023-02-28T08:08:51;6.60;;;5.47;;
1699;SDS011;847;48.058;7.810;2023-02-28T08:11:21;6.40;;;5.15;;
1699;SDS011;847;48.058;7.810;2023-02-28T08:13:47;7.38;;;5.30;;
1699;SDS011;847;48.058;7.810;2023-02-28T08:16:14;6.13;;;5.55;;
1699;SDS011;847;48.058;7.810;2023-02-28T08:18:49;6.27;;;5.57;;
1699;SDS011;847;48.058;7.810;2023-02-28T08:21:18;7.75;;;5.55;;
1699;SDS011;847;48.058;7.810;2023-02-28T08:23:50;7.03;;;5.53;;
1699;SDS011;847;48.058;7.810;2023-02-28T08:26:18;6.93;;;6.00;;
1699;SDS011;847;48.058;7.810;2023-02-28T08:28:45;6.50;;;5.63;;
1699;SDS011;847;48.058;7.810;2023-02-28T08:31:13;8.13;;;6.70;;
1699;SDS011;847;48.058;7.810;2023-02-28T08:33:42;5.80;;;5.23;;
1699;SDS011;847;48.058;7.810;2023-02-28T08:36:09;8.60;;;5.40;;
1699;SDS011;847;48.058;7.810;2023-02-28T08:38:37;5.93;;;5.30;;
1699;SDS011;847;48.058;7.810;2023-02-28T08:41:06;6.70;;;5.83;;
1699;SDS011;847;48.058;7.810;2023-02-28T08:43:36;7.05;;;5.13;;
1699;SDS011;847;48.058;7.810;2023-02-28T08:46:03;7.80;;;6.65;;
1699;SDS011;847;48.058;7.810;2023-02-28T08:48:32;6.50;;;5.35;;
1699;SDS011;847;48.058;7.810;2023-02-28T08:51:00;7.13;;;6.20;;
1699;SDS011;847;48.058;7.810;2023-02-28T08:53:30;5.93;;;5.25;;
1699;SDS011;847;48.058;7.810;2023-02-28T08:56:04;7.50;;;6.05;;
1699;SDS011;847;48.058;7.810;2023-02-28T08:58:34;7.97;;;5.65;;
1699;SDS011;847;48.058;7.810;2023-02-28T09:01:07;7.00;;;6.10;;
1699;SDS011;847;48.058;7.810;2023-02-28T09:03:35;8.23;;;6.83;;
1699;SDS011;847;48.058;7.810;2023-02-28T09:06:02;7.72;;;6.72;;
1699;SDS011;847;48.058;7.810;2023-02-28T09:08:30;9.20;;;6.30;;
1699;SDS011;847;48.058;7.810;2023-02-28T09:10:57;6.70;;;5.15;;
1699;SDS011;847;48.058;7.810;2023-02-28T09:13:27;7.57;;;6.68;;
1699;SDS011;847;48.058;7.810;2023-02-28T09:15:54;8.68;;;7.00;;
1699;SDS011;847;48.058;7.810;2023-02-28T09:18:24;7.23;;;6.27;;
1699;SDS011;847;48.058;7.810;2023-02-28T09:20:51;8.40;;;6.78;;
1699;SDS011;847;48.058;7.810;2023-02-28T09:23:19;8.73;;;6.28;;
1699;SDS011;847;48.058;7.810;2023-02-28T09:25:47;7.10;;;5.90;;
1699;SDS011;847;48.058;7.810;2023-02-28T09:28:16;8.75;;;6.85;;
1699;SDS011;847;48.058;7.810;2023-02-28T09:30:46;6.27;;;5.67;;
1699;SDS011;847;48.058;7.810;2023-02-28T09:33:14;8.77;;;6.20;;
1699;SDS011;847;48.058;7.810;2023-02-28T09:35:42;9.73;;;6.40;;
1699;SDS011;847;48.058;7.810;2023-02-28T09:38:09;10.17;;;6.50;;
1699;SDS011;847;48.058;7.810;2023-02-28T09:40:37;8.27;;;7.33;;
1699;SDS011;847;48.058;7.810;2023-02-28T09:43:06;9.17;;;6.77;;
1699;SDS011;847;48.058;7.810;2023-02-28T09:45:39;11.27;;;6.50;;
1699;SDS011;847;48.058;7.810;2023-02-28T09:50:48;7.47;;;6.67;;
1699;SDS011;847;48.058;7.810;2023-02-28T09:53:19;9.23;;;7.07;;
1699;SDS011;847;48.058;7.810;2023-02-28T09:55:52;7.07;;;6.37;;
1699;SDS011;847;48.058;7.810;2023-02-28T09:58:23;8.67;;;6.87;;
1699;SDS011;847;48.058;7.810;2023-02-28T10:00:57;10.60;;;9.10;;
1699;SDS011;847;48.058;7.810;2023-02-28T10:03:30;14.00;;;7.43;;
1699;SDS011;847;48.058;7.810;2023-02-28T10:06:04;14.03;;;7.00;;
1699;SDS011;847;48.058;7.810;2023-02-28T10:08:36;9.00;;;7.83;;
1699;SDS011;847;48.058;7.810;2023-02-28T10:11:10;7.80;;;6.40;;
1699;SDS011;847;48.058;7.810;2023-02-28T10:13:49;7.03;;;6.40;;
1699;SDS011;847;48.058;7.810;2023-02-28T10:16:21;7.33;;;6.60;;
1699;SDS011;847;48.058;7.810;2023-02-28T10:18:52;8.10;;;7.20;;
1699;SDS011;847;48.058;7.810;2023-02-28T10:21:26;6.93;;;6.23;;
1699;SDS011;847;48.058;7.810;2023-02-28T10:23:59;8.43;;;7.10;;
1699;SDS011;847;48.058;7.810;2023-02-28T10:26:31;9.67;;;6.67;;
1699;SDS011;847;48.058;7.810;2023-02-28T10:28:59;8.43;;;6.27;;
1699;SDS011;847;48.058;7.810;2023-02-28T10:31:27;13.40;;;9.27;;
1699;SDS011;847;48.058;7.810;2023-02-28T10:33:55;8.10;;;7.30;;
1699;SDS011;847;48.058;7.810;2023-02-28T10:36:22;9.20;;;7.07;;
1699;SDS011;847;48.058;7.810;2023-02-28T10:38:50;8.13;;;7.33;;
1699;SDS011;847;48.058;7.810;2023-02-28T10:41:26;9.63;;;8.27;;
1699;SDS011;847;48.058;7.810;2023-02-28T10:44:12;7.00;;;6.30;;
1699;SDS011;847;48.058;7.810;2023-02-28T10:46:41;9.43;;;8.43;;
1699;SDS011;847;48.058;7.810;2023-02-28T10:49:13;7.27;;;6.47;;
1699;SDS011;847;48.058;7.810;2023-02-28T10:51:43;9.03;;;7.60;;
1699;SDS011;847;48.058;7.810;2023-02-28T10:54:16;7.03;;;6.33;;
1699;SDS011;847;48.058;7.810;2023-02-28T10:56:45;8.60;;;6.57;;
1699;SDS011;847;48.058;7.810;2023-02-28T10:59:25;9.43;;;7.80;;
1699;SDS011;847;48.058;7.810;2023-02-28T11:01:54;7.37;;;6.50;;
1699;SDS011;847;48.058;7.810;2023-02-28T11:04:32;9.50;;;7.37;;
1699;SDS011;847;48.058;7.810;2023-02-28T11:07:03;8.77;;;7.30;;
1699;SDS011;847;48.058;7.810;2023-02-28T11:09:34;8.80;;;7.70;;
1699;SDS011;847;48.058;7.810;2023-02-28T11:12:04;8.90;;;7.20;;
1699;SDS011;847;48.058;7.810;2023-02-28T11:14:35;8.00;;;6.90;;
1699;SDS011;847;48.058;7.810;2023-02-28T11:17:14;8.40;;;6.63;;
1699;SDS011;847;48.058;7.810;2023-02-28T11:19:48;9.17;;;7.10;;
1699;SDS011;847;48.058;7.810;2023-02-28T11:22:19;8.40;;;6.67;;
1699;SDS011;847;48.058;7.810;2023-02-28T11:24:51;9.23;;;7.40;;
1699;SDS011;847;48.058;7.810;2023-02-28T11:27:42;8.97;;;7.00;;
1699;SDS011;847;48.058;7.810;2023-02-28T11:35:53;8.67;;;7.23;;
1699;SDS011;847;48.058;7.810;2023-02-28T11:38:25;7.77;;;7.00;;
1699;SDS011;847;48.058;7.810;2023-02-28T11:40:59;9.07;;;7.97;;
1699;SDS011;847;48.058;7.810;2023-02-28T11:43:40;11.40;;;9.57;;
1699;SDS011;847;48.058;7.810;2023-02-28T11:46:21;11.00;;;7.40;;
1699;SDS011;847;48.058;7.810;2023-02-28T11:48:55;8.90;;;7.30;;
1699;SDS011;847;48.058;7.810;2023-02-28T11:51:30;8.13;;;7.13;;
1699;SDS011;847;48.058;7.810;2023-02-28T11:54:23;10.00;;;7.80;;
1699;SDS011;847;48.058;7.810;2023-02-28T11:57:03;9.57;;;7.23;;
1699;SDS011;847;48.058;7.810;2023-02-28T11:59:46;10.40;;;7.27;;
1699;SDS011;847;48.058;7.810;2023-02-28T12:02:28;9.87;;;7.87;;
1699;SDS011;847;48.058;7.810;2023-02-28T12:05:03;10.20;;;7.40;;
1699;SDS011;847;48.058;7.810;2023-02-28T12:07:44;11.83;;;9.03;;
1699;SDS011;847;48.058;7.810;2023-02-28T12:10:20;8.60;;;6.77;;
1699;SDS011;847;48.058;7.810;2023-02-28T12:12:59;8.20;;;6.20;;
1699;SDS011;847;48.058;7.810;2023-02-28T12:15:47;8.40;;;7.50;;
1699;SDS011;847;48.058;7.810;2023-02-28T12:18:30;11.57;;;8.87;;
1699;SDS011;847;48.058;7.810;2023-02-28T12:21:20;7.97;;;7.20;;
1699;SDS011;847;48.058;7.810;2023-02-28T12:24:12;9.43;;;8.00;;
1699;SDS011;847;48.058;7.810;2023-02-28T12:26:50;8.80;;;7.10;;
1699;SDS011;847;48.058;7.810;2023-02-28T12:29:26;8.77;;;7.87;;
1699;SDS011;847;48.058;7.810;2023-02-28T12:31:58;8.60;;;7.70;;
1699;SDS011;847;48.058;7.810;2023-02-28T12:34:36;10.60;;;8.33;;
1699;SDS011;847;48.058;7.810;2023-02-28T12:37:06;11.47;;;7.53;;
1699;SDS011;847;48.058;7.810;2023-02-28T12:39:39;8.33;;;7.10;;
1699;SDS011;847;48.058;7.810;2023-02-28T12:42:16;10.87;;;8.27;;
1699;SDS011;847;48.058;7.810;2023-02-28T12:44:54;9.40;;;7.77;;
1699;SDS011;847;48.058;7.810;2023-02-28T12:47:26;9.57;;;8.13;;
1699;SDS011;847;48.058;7.810;2023-02-28T12:50:00;8.57;;;7.53;;
1699;SDS011;847;48.058;7.810;2023-02-28T12:52:35;9.53;;;7.93;;
1699;SDS011;847;48.058;7.810;2023-02-28T12:55:16;10.93;;;8.53;;
1699;SDS011;847;48.058;7.810;2023-02-28T12:57:52;13.40;;;9.77;;
1699;SDS011;847;48.058;7.810;2023-02-28T13:00:43;10.10;;;7.43;;
1699;SDS011;847;48.058;7.810;2023-02-28T13:06:21;15.63;;;9.10;;
1699;SDS011;847;48.058;7.810;2023-02-28T13:54:18;9.33;;;7.57;;
1699;SDS011;847;48.058;7.810;2023-02-28T14:02:25;10.07;;;9.03;;
1699;SDS011;847;48.058;7.810;2023-02-28T14:05:13;14.63;;;9.30;;
1699;SDS011;847;48.058;7.810;2023-02-28T14:07:44;11.90;;;10.17;;
1699;SDS011;847;48.058;7.810;2023-02-28T14:10:21;10.40;;;7.80;;
1699;SDS011;847;48.058;7.810;2023-02-28T14:13:03;14.93;;;10.10;;
1699;SDS011;847;48.058;7.810;2023-02-28T14:15:49;11.30;;;8.90;;
1699;SDS011;847;48.058;7.810;2023-02-28T14:18:31;12.03;;;9.77;;
1699;SDS011;847;48.058;7.810;2023-02-28T14:21:10;13.33;;;10.00;;
1699;SDS011;847;48.058;7.810;2023-02-28T14:23:56;11.70;;;9.00;;
1699;SDS011;847;48.058;7.810;2023-02-28T14:27:00;9.90;;;8.67;;
1699;SDS011;847;48.058;7.810;2023-02-28T14:43:05;10.50;;;8.23;;
1699;SDS011;847;48.058;7.810;2023-02-28T14:51:22;11.50;;;8.23;;
1699;SDS011;847;48.058;7.810;2023-02-28T14:53:52;9.63;;;8.40;;
1699;SDS011;847;48.058;7.810;2023-02-28T14:56:30;9.87;;;8.37;;
1699;SDS011;847;48.058;7.810;2023-02-28T15:04:33;12.77;;;9.97;;
1699;SDS011;847;48.058;7.810;2023-02-28T15:12:11;13.03;;;9.30;;
1699;SDS011;847;48.058;7.810;2023-02-28T15:14:43;11.90;;;9.00;;
1699;SDS011;847;48.058;7.810;2023-02-28T15:17:15;11.60;;;9.80;;
1699;SDS011;847;48.058;7.810;2023-02-28T15:19:53;11.60;;;9.10;;
1699;SDS011;847;48.058;7.810;2023-02-28T15:22:28;12.17;;;9.53;;
1699;SDS011;847;48.058;7.810;2023-02-28T15:25:04;9.53;;;7.93;;
1699;SDS011;847;48.058;7.810;2023-02-28T15:27:33;10.23;;;8.90;;
1699;SDS011;847;48.058;7.810;2023-02-28T15:30:15;11.60;;;9.00;;
1699;SDS011;847;48.058;7.810;2023-02-28T15:40:37;12.53;;;8.90;;
1699;SDS011;847;48.058;7.810;2023-02-28T15:43:11;12.23;;;10.13;;
1699;SDS011;847;48.058;7.810;2023-02-28T15:48:22;11.00;;;9.90;;
1699;SDS011;847;48.058;7.810;2023-02-28T15:51:09;11.30;;;9.10;;
1699;SDS011;847;48.058;7.810;2023-02-28T15:53:48;13.40;;;11.00;;
1699;SDS011;847;48.058;7.810;2023-02-28T15:56:43;12.50;;;8.63;;
1699;SDS011;847;48.058;7.810;2023-02-28T15:59:17;10.13;;;8.73;;
1699;SDS011;847;48.058;7.810;2023-02-28T16:07:12;15.00;;;9.40;;
1699;SDS011;847;48.058;7.810;2023-02-28T16:09:40;11.40;;;9.33;;
1699;SDS011;847;48.058;7.810;2023-02-28T16:12:10;11.80;;;9.77;;
1699;SDS011;847;48.058;7.810;2023-02-28T16:40:58;12.20;;;10.57;;
1699;SDS011;847;48.058;7.810;2023-02-28T17:37:25;15.33;;;11.33;;
1699;SDS011;847;48.058;7.810;2023-02-28T17:40:11;12.80;;;11.30;;
1699;SDS011;847;48.058;7.810;2023-02-28T17:42:56;14.90;;;11.83;;
1699;SDS011;847;48.058;7.810;2023-02-28T17:45:34;15.30;;;12.67;;
1699;SDS011;847;48.058;7.810;2023-02-28T17:48:16;23.20;;;16.50;;
1699;SDS011;847;48.058;7.810;2023-02-28T17:51:12;26.33;;;19.13;;
1699;SDS011;847;48.058;7.810;2023-02-28T17:53:41;31.23;;;21.40;;
1699;SDS011;847;48.058;7.810;2023-02-28T17:56:11;34.83;;;22.37;;
1699;SDS011;847;48.058;7.810;2023-02-28T17:58:39;29.50;;;19.70;;
1699;SDS011;847;48.058;7.810;2023-02-28T18:01:06;18.53;;;14.20;;
1699;SDS011;847;48.058;7.810;2023-02-28T18:03:34;21.53;;;15.20;;
1699;SDS011;847;48.058;7.810;2023-02-28T18:06:01;20.13;;;15.10;;
1699;SDS011;847;48.058;7.810;2023-02-28T18:08:29;20.17;;;14.40;;
1699;SDS011;847;48.058;7.810;2023-02-28T18:11:06;18.30;;;14.30;;
1699;SDS011;847;48.058;7.810;2023-02-28T19:41:49;17.03;;;13.53;;
1699;SDS011;847;48.058;7.810;2023-02-28T19:44:18;16.10;;;14.37;;
1699;SDS011;847;48.058;7.810;2023-02-28T19:46:45;16.53;;;14.43;;
1699;SDS011;847;48.058;7.810;2023-02-28T19:49:12;19.37;;;13.43;;
1699;SDS011;847;48.058;7.810;2023-02-28T19:51:39;15.60;;;14.10;;
1699;SDS011;847;48.058;7.810;2023-02-28T19:54:08;19.50;;;15.20;;
1699;SDS011;847;48.058;7.810;2023-02-28T19:56:35;19.53;;;14.60;;
1699;SDS011;847;48.058;7.810;2023-02-28T19:59:03;18.07;;;16.17;;
1699;SDS011;847;48.058;7.810;2023-02-28T20:01:30;19.97;;;16.07;;
1699;SDS011;847;48.058;7.810;2023-02-28T20:03:57;19.43;;;15.90;;
1699;SDS011;847;48.058;7.810;2023-02-28T20:06:24;17.77;;;14.37;;
1699;SDS011;847;48.058;7.810;2023-02-28T20:08:52;13.90;;;12.13;;
1699;SDS011;847;48.058;7.810;2023-02-28T20:11:20;15.23;;;13.63;;
1699;SDS011;847;48.058;7.810;2023-02-28T20:13:46;16.67;;;14.23;;
1699;SDS011;847;48.058;7.810;2023-02-28T20:16:15;15.53;;;13.90;;
1699;SDS011;847;48.058;7.810;2023-02-28T20:18:42;17.17;;;14.93;;
1699;SDS011;847;48.058;7.810;2023-02-28T20:21:10;16.23;;;13.50;;
1699;SDS011;847;48.058;7.810;2023-02-28T20:23:38;18.27;;;14.47;;
1699;SDS011;847;48.058;7.810;2023-02-28T20:26:07;16.13;;;14.07;;
1699;SDS011;847;48.058;7.810;2023-02-28T20:28:35;18.43;;;14.93;;
1699;SDS011;847;48.058;7.810;2023-02-28T20:31:02;21.00;;;17.70;;